Terminal Aerodrome Forecast
Issued by NWS Charleston, WV

Home | Current Version | Previous Version | Text Only | Print | Product List | Glossary On
Versions: 1 2 3 4 5 6 7 8 9 10 11 12 13 14 15 16 17
000
FTUS41 KRLX 270200 AAA
TAFPKB
TAF AMD
KPKB 270244Z 2703/2724 VRB03KT P6SM FEW200
     FM271000 00000KT P6SM SCT040
     FM271400 VRB03KT P6SM BKN040=

USA.gov is the U.S. government's official web portal to all federal, state and local government web resources and services.